Time;durP1;ratioP1;P1;durP2;ratioP2;P2;SDS_P1;SDS_P2;PMS_P1;PMS_P2;Temp;Humidity;BMP_temperature;BMP_pressure;BME280_temperature;BME280_humidity;BME280_pressure;Samples;Min_cycle;Max_cycle;Signal;HPM_P1;HPM_P2
2021/07/31 00:00:02;;;;;;;5.47;1.75;;;;;;;;;;5020392;28;20069;-77
2021/07/31 00:02:29;;;;;;;3.75;1.70;;;;;;;;;;5021480;28;20049;-78
2021/07/31 00:04:55;;;;;;;2.90;1.95;;;;;;;;;;5022720;28;20486;-77
2021/07/31 00:07:21;;;;;;;3.38;1.60;;;;;;;;;;5024087;28;20062;-78
2021/07/31 00:09:48;;;;;;;6.63;2.03;;;;;;;;;;5021600;28;20493;-78
2021/07/31 00:12:14;;;;;;;2.60;1.60;;;;;;;;;;5023866;28;20053;-78
2021/07/31 00:14:41;;;;;;;4.15;2.05;;;;;;;;;;5024912;28;20099;-78
2021/07/31 00:17:08;;;;;;;3.63;1.60;;;;;;;;;;5023188;28;20072;-78
2021/07/31 00:19:35;;;;;;;3.88;1.80;;;;;;;;;;5025054;28;20463;-78
2021/07/31 00:22:02;;;;;;;5.50;1.90;;;;;;;;;;5024218;28;20096;-78
2021/07/31 00:24:29;;;;;;;4.82;1.98;;;;;;;;;;5023015;28;20056;-79
2021/07/31 00:26:56;;;;;;;3.97;1.63;;;;;;;;;;5024238;28;20065;-80
2021/07/31 00:29:23;;;;;;;2.95;1.63;;;;;;;;;;5023317;28;20036;-81
2021/07/31 00:31:49;;;;;;;2.17;1.70;;;;;;;;;;5025091;28;20064;-79
2021/07/31 00:34:15;;;;;;;5.28;2.22;;;;;;;;;;5023508;28;20124;-80
2021/07/31 00:36:42;;;;;;;6.20;1.90;;;;;;;;;;5024368;28;20068;-80
2021/07/31 00:39:08;;;;;;;5.43;2.17;;;;;;;;;;5023127;28;20072;-81
2021/07/31 00:41:35;;;;;;;3.15;2.00;;;;;;;;;;5021330;28;20111;-80
2021/07/31 00:44:01;;;;;;;3.25;1.70;;;;;;;;;;5024647;28;20057;-80
2021/07/31 00:46:27;;;;;;;3.10;1.95;;;;;;;;;;5024410;28;20122;-79
2021/07/31 00:48:55;;;;;;;4.75;1.85;;;;;;;;;;5021090;28;20072;-79
2021/07/31 00:51:21;;;;;;;3.33;1.60;;;;;;;;;;5022638;28;20100;-80
2021/07/31 00:53:48;;;;;;;4.22;1.80;;;;;;;;;;5023515;28;20077;-78
2021/07/31 00:56:15;;;;;;;2.80;1.92;;;;;;;;;;5023873;28;20060;-78
2021/07/31 00:58:43;;;;;;;2.55;1.90;;;;;;;;;;5022012;28;20068;-78
2021/07/31 01:01:09;;;;;;;5.75;1.83;;;;;;;;;;5023339;28;20091;-78
2021/07/31 01:03:36;;;;;;;2.53;1.80;;;;;;;;;;5023157;28;20033;-79
2021/07/31 01:06:02;;;;;;;5.10;2.00;;;;;;;;;;5022863;28;20484;-78
2021/07/31 01:08:29;;;;;;;2.97;1.70;;;;;;;;;;5023540;28;20065;-78
2021/07/31 01:10:56;;;;;;;3.22;1.83;;;;;;;;;;5022878;28;20067;-79
2021/07/31 01:13:23;;;;;;;5.57;2.22;;;;;;;;;;5024952;28;20092;-78
2021/07/31 01:15:56;;;;;;;2.75;1.45;;;;;;;;;;5021717;28;20072;-77
2021/07/31 01:18:22;;;;;;;6.28;2.10;;;;;;;;;;5052850;28;20068;-79
2021/07/31 01:20:49;;;;;;;3.72;1.85;;;;;;;;;;5023066;28;20053;-77
2021/07/31 01:23:15;;;;;;;5.30;1.98;;;;;;;;;;5024366;28;20087;-79
2021/07/31 01:25:42;;;;;;;3.17;1.80;;;;;;;;;;5024294;28;20076;-79
2021/07/31 01:28:11;;;;;;;4.38;1.73;;;;;;;;;;5022641;28;20095;-79
2021/07/31 01:30:38;;;;;;;3.45;2.08;;;;;;;;;;5024034;28;20069;-79
2021/07/31 01:33:04;;;;;;;3.42;2.20;;;;;;;;;;5023279;28;20689;-80
2021/07/31 01:35:31;;;;;;;5.00;2.05;;;;;;;;;;5021831;28;20072;-80
2021/07/31 01:37:57;;;;;;;6.00;2.00;;;;;;;;;;5022083;28;20030;-80
2021/07/31 01:40:24;;;;;;;4.57;2.20;;;;;;;;;;5020087;28;20040;-81
2021/07/31 01:42:50;;;;;;;3.80;1.80;;;;;;;;;;5054363;28;20601;-79
2021/07/31 01:45:16;;;;;;;3.47;1.90;;;;;;;;;;5024563;28;20469;-82
2021/07/31 01:47:44;;;;;;;5.22;2.20;;;;;;;;;;5054584;28;20501;-78
2021/07/31 01:50:10;;;;;;;4.95;1.80;;;;;;;;;;5019700;28;20167;-80
2021/07/31 01:52:37;;;;;;;6.22;2.40;;;;;;;;;;5024280;28;20068;-79
2021/07/31 01:55:03;;;;;;;4.00;2.10;;;;;;;;;;5022568;28;20519;-79
2021/07/31 01:57:30;;;;;;;3.70;2.00;;;;;;;;;;5020300;28;20041;-79
2021/07/31 01:59:56;;;;;;;3.90;1.90;;;;;;;;;;5021124;28;20056;-79
2021/07/31 02:02:22;;;;;;;4.57;2.28;;;;;;;;;;5023207;28;20060;-79
2021/07/31 02:04:49;;;;;;;3.03;2.08;;;;;;;;;;5022108;28;21187;-78
2021/07/31 02:07:15;;;;;;;6.18;2.45;;;;;;;;;;5022547;28;20207;-78
2021/07/31 02:09:42;;;;;;;3.25;2.20;;;;;;;;;;5023655;28;20053;-78
2021/07/31 02:12:08;;;;;;;4.88;2.05;;;;;;;;;;5021865;28;20583;-79
2021/07/31 02:14:36;;;;;;;4.65;1.90;;;;;;;;;;5019571;28;20080;-79
2021/07/31 02:17:02;;;;;;;4.60;2.13;;;;;;;;;;5019702;28;20072;-78
2021/07/31 02:19:32;;;;;;;5.70;2.15;;;;;;;;;;5054285;28;20057;-79
2021/07/31 02:22:00;;;;;;;3.45;1.90;;;;;;;;;;5020689;28;20073;-79
2021/07/31 02:24:26;;;;;;;5.55;2.20;;;;;;;;;;5021439;28;20523;-79
2021/07/31 02:26:52;;;;;;;5.03;2.00;;;;;;;;;;5021511;28;20068;-78
2021/07/31 02:29:19;;;;;;;2.42;1.90;;;;;;;;;;5021225;28;20088;-78
2021/07/31 02:31:45;;;;;;;3.58;1.85;;;;;;;;;;5021548;28;20645;-79
2021/07/31 02:34:11;;;;;;;5.45;2.20;;;;;;;;;;5021623;28;20057;-78
2021/07/31 02:36:38;;;;;;;4.65;1.95;;;;;;;;;;5023745;28;20057;-79
2021/07/31 02:39:04;;;;;;;4.45;2.10;;;;;;;;;;5021576;28;20102;-78
2021/07/31 02:41:30;;;;;;;4.55;2.10;;;;;;;;;;5022448;28;20096;-78
2021/07/31 02:43:57;;;;;;;3.78;2.05;;;;;;;;;;5053001;28;20057;-80
2021/07/31 02:46:23;;;;;;;5.43;2.30;;;;;;;;;;5021812;28;20181;-77
2021/07/31 02:48:50;;;;;;;4.00;2.17;;;;;;;;;;5021337;28;20061;-78
2021/07/31 02:51:18;;;;;;;4.53;2.30;;;;;;;;;;5020791;28;20065;-78
2021/07/31 02:53:44;;;;;;;3.60;2.30;;;;;;;;;;5022613;28;20135;-78
2021/07/31 02:56:10;;;;;;;3.88;2.53;;;;;;;;;;5020888;28;20072;-78
2021/07/31 02:58:37;;;;;;;2.85;2.08;;;;;;;;;;5022399;28;20069;-78
2021/07/31 03:01:04;;;;;;;3.35;2.20;;;;;;;;;;5021231;28;20054;-78
2021/07/31 03:03:31;;;;;;;4.43;2.28;;;;;;;;;;5020984;28;20548;-78
2021/07/31 03:05:58;;;;;;;6.30;2.22;;;;;;;;;;5020261;28;20052;-78
2021/07/31 03:08:27;;;;;;;4.55;2.20;;;;;;;;;;5022563;28;20068;-78
2021/07/31 03:10:54;;;;;;;4.25;2.65;;;;;;;;;;5019193;28;20053;-78
2021/07/31 03:13:21;;;;;;;5.05;2.38;;;;;;;;;;5022740;28;20529;-79
2021/07/31 03:15:47;;;;;;;4.85;2.30;;;;;;;;;;5020345;28;20073;-78
2021/07/31 03:18:13;;;;;;;6.28;2.83;;;;;;;;;;5020028;28;20227;-79
2021/07/31 03:20:44;;;;;;;3.55;2.10;;;;;;;;;;5021916;28;20060;-79
2021/07/31 03:23:10;;;;;;;4.57;2.00;;;;;;;;;;5021159;28;20058;-78
2021/07/31 03:25:37;;;;;;;4.32;2.50;;;;;;;;;;5021717;28;20073;-79
2021/07/31 03:28:03;;;;;;;3.55;2.33;;;;;;;;;;5020134;28;20104;-79
2021/07/31 03:30:30;;;;;;;4.30;2.30;;;;;;;;;;5021205;28;20102;-79
2021/07/31 03:32:56;;;;;;;4.53;2.35;;;;;;;;;;5020305;28;20410;-79
2021/07/31 03:35:22;;;;;;;4.43;2.30;;;;;;;;;;5020273;28;20080;-79
2021/07/31 03:37:49;;;;;;;3.92;2.22;;;;;;;;;;5021270;28;20065;-78
2021/07/31 03:40:15;;;;;;;4.95;2.92;;;;;;;;;;5026441;28;20579;-78
2021/07/31 03:42:42;;;;;;;4.38;2.58;;;;;;;;;;5025671;28;20061;-80
2021/07/31 03:45:08;;;;;;;5.05;2.55;;;;;;;;;;5025758;28;20060;-80
2021/07/31 03:47:34;;;;;;;5.05;2.50;;;;;;;;;;5056210;28;20167;-78
2021/07/31 03:50:01;;;;;;;4.47;2.55;;;;;;;;;;5023081;28;20123;-78
2021/07/31 03:52:27;;;;;;;6.03;2.75;;;;;;;;;;5025584;28;20052;-79
2021/07/31 03:54:54;;;;;;;4.20;1.85;;;;;;;;;;5025087;28;20475;-80
2021/07/31 03:57:20;;;;;;;3.55;2.58;;;;;;;;;;5025398;28;20064;-80
2021/07/31 03:59:46;;;;;;;6.78;2.72;;;;;;;;;;5054870;28;20634;-81
2021/07/31 04:02:13;;;;;;;4.43;2.42;;;;;;;;;;5023151;28;20053;-80
2021/07/31 04:04:39;;;;;;;5.45;2.67;;;;;;;;;;5024102;28;20057;-81
2021/07/31 04:07:06;;;;;;;6.18;2.65;;;;;;;;;;5024573;28;20065;-81
2021/07/31 04:09:32;;;;;;;4.40;2.60;;;;;;;;;;5025702;28;20071;-80
2021/07/31 04:11:58;;;;;;;4.75;3.00;;;;;;;;;;5056372;28;20057;-81
2021/07/31 04:14:25;;;;;;;5.22;2.20;;;;;;;;;;5026204;28;20049;-82
2021/07/31 04:16:52;;;;;;;5.50;2.90;;;;;;;;;;5023534;28;20044;-80
2021/07/31 04:19:19;;;;;;;4.13;2.60;;;;;;;;;;5024307;28;20124;-80
2021/07/31 04:21:45;;;;;;;4.78;2.65;;;;;;;;;;5025736;28;20482;-80
2021/07/31 04:24:11;;;;;;;4.75;2.53;;;;;;;;;;5023903;28;20068;-81
2021/07/31 04:26:38;;;;;;;6.68;2.78;;;;;;;;;;5023685;28;20128;-79
2021/07/31 04:29:04;;;;;;;7.05;2.85;;;;;;;;;;5024944;28;20052;-79
2021/07/31 04:31:30;;;;;;;4.95;2.70;;;;;;;;;;5024360;28;20057;-80
2021/07/31 04:33:57;;;;;;;5.63;2.70;;;;;;;;;;5020486;28;20060;-80
2021/07/31 04:36:23;;;;;;;5.22;2.83;;;;;;;;;;5052789;28;20041;-80
2021/07/31 04:38:50;;;;;;;5.13;2.90;;;;;;;;;;5023710;28;20078;-80
2021/07/31 04:41:16;;;;;;;4.55;2.78;;;;;;;;;;5022729;28;20053;-80
2021/07/31 04:43:42;;;;;;;7.45;3.10;;;;;;;;;;5024754;28;20061;-80
2021/07/31 04:46:09;;;;;;;7.35;3.08;;;;;;;;;;5022947;28;20071;-80
2021/07/31 04:48:36;;;;;;;4.45;2.70;;;;;;;;;;5024989;28;20080;-80
2021/07/31 04:51:03;;;;;;;5.25;2.80;;;;;;;;;;5023286;28;20509;-80
2021/07/31 04:53:30;;;;;;;5.88;2.88;;;;;;;;;;5024609;28;20057;-80
2021/07/31 04:55:57;;;;;;;4.60;2.65;;;;;;;;;;5022467;28;20069;-79
2021/07/31 04:58:23;;;;;;;5.50;2.85;;;;;;;;;;5023353;28;20091;-79
2021/07/31 05:00:50;;;;;;;5.93;2.90;;;;;;;;;;5024066;28;20105;-78
2021/07/31 05:03:17;;;;;;;3.85;2.50;;;;;;;;;;5022456;28;20053;-78
2021/07/31 05:05:44;;;;;;;3.70;2.90;;;;;;;;;;5023327;28;20060;-78
2021/07/31 05:08:10;;;;;;;3.70;2.95;;;;;;;;;;5022769;28;20079;-78
2021/07/31 05:10:44;;;;;;;4.78;2.83;;;;;;;;;;5023115;28;20069;-81
2021/07/31 05:13:10;;;;;;;5.32;2.58;;;;;;;;;;5023709;28;20056;-79
2021/07/31 05:15:37;;;;;;;3.50;2.83;;;;;;;;;;5024017;28;20096;-79
2021/07/31 05:18:04;;;;;;;5.85;2.80;;;;;;;;;;5023762;28;20073;-79
2021/07/31 05:20:31;;;;;;;6.57;2.90;;;;;;;;;;5023811;28;20151;-80
2021/07/31 05:22:57;;;;;;;5.78;2.65;;;;;;;;;;5023932;28;20114;-80
2021/07/31 05:25:24;;;;;;;4.93;2.90;;;;;;;;;;5023305;28;20068;-82
2021/07/31 05:27:50;;;;;;;5.45;2.97;;;;;;;;;;5021057;28;20081;-81
2021/07/31 05:30:16;;;;;;;3.97;2.50;;;;;;;;;;5023616;28;20050;-80
2021/07/31 05:32:43;;;;;;;4.70;2.70;;;;;;;;;;5052652;28;20064;-81
2021/07/31 05:35:10;;;;;;;5.97;2.67;;;;;;;;;;5022128;28;20553;-81
2021/07/31 05:37:36;;;;;;;5.90;2.70;;;;;;;;;;5023634;28;20080;-81
2021/07/31 05:40:03;;;;;;;4.00;2.67;;;;;;;;;;5022011;28;20105;-79
2021/07/31 05:42:29;;;;;;;4.28;3.10;;;;;;;;;;5023908;28;20572;-81
2021/07/31 05:44:59;;;;;;;4.55;2.75;;;;;;;;;;5022363;28;20072;-81
2021/07/31 05:47:27;;;;;;;3.80;2.60;;;;;;;;;;5023866;28;20559;-83
2021/07/31 05:49:53;;;;;;;4.30;2.53;;;;;;;;;;5020999;28;20071;-80
2021/07/31 05:52:24;;;;;;;3.58;2.42;;;;;;;;;;5022620;28;20567;-81
2021/07/31 05:54:51;;;;;;;4.30;2.75;;;;;;;;;;5022573;28;20065;-81
2021/07/31 05:57:18;;;;;;;3.65;2.60;;;;;;;;;;5050847;28;20083;-81
2021/07/31 05:59:44;;;;;;;4.53;2.47;;;;;;;;;;5024598;28;20061;-80
2021/07/31 06:02:10;;;;;;;7.32;3.00;;;;;;;;;;5017684;28;20088;-79
2021/07/31 06:04:37;;;;;;;6.65;3.15;;;;;;;;;;5020048;28;20064;-79
2021/07/31 06:07:06;;;;;;;5.70;2.63;;;;;;;;;;5021511;28;20081;-81
2021/07/31 06:09:34;;;;;;;3.72;2.50;;;;;;;;;;5021059;28;20064;-79
2021/07/31 06:12:00;;;;;;;5.82;2.63;;;;;;;;;;5022840;28;20080;-80
2021/07/31 06:14:27;;;;;;;5.30;2.50;;;;;;;;;;5021571;28;20139;-79
2021/07/31 06:16:54;;;;;;;5.05;2.60;;;;;;;;;;5022112;28;20076;-81
2021/07/31 06:19:21;;;;;;;5.55;2.80;;;;;;;;;;5021005;28;20158;-81
2021/07/31 06:21:47;;;;;;;5.80;2.92;;;;;;;;;;5020309;28;20057;-80
2021/07/31 06:24:14;;;;;;;6.88;2.38;;;;;;;;;;5020529;28;20061;-80
2021/07/31 06:26:40;;;;;;;6.20;2.92;;;;;;;;;;5025732;28;20060;-82
2021/07/31 06:29:06;;;;;;;7.65;3.17;;;;;;;;;;5019677;28;20057;-83
2021/07/31 06:31:33;;;;;;;5.18;3.17;;;;;;;;;;5021009;28;20056;-82
2021/07/31 06:33:59;;;;;;;7.32;3.70;;;;;;;;;;5020359;28;20069;-82
2021/07/31 06:36:26;;;;;;;6.57;3.58;;;;;;;;;;5021164;28;20408;-83
2021/07/31 06:38:52;;;;;;;6.28;3.30;;;;;;;;;;5022942;28;20458;-82
2021/07/31 06:41:19;;;;;;;7.70;3.30;;;;;;;;;;5020308;28;20055;-81
2021/07/31 06:43:45;;;;;;;5.90;3.47;;;;;;;;;;5032485;28;20049;-80
2021/07/31 06:46:12;;;;;;;6.13;3.60;;;;;;;;;;5019621;28;20634;-82
2021/07/31 06:48:38;;;;;;;5.60;3.33;;;;;;;;;;5021748;28;20084;-78
2021/07/31 06:51:05;;;;;;;10.70;4.40;;;;;;;;;;5022765;28;20767;-81
2021/07/31 06:53:31;;;;;;;6.05;3.65;;;;;;;;;;5021825;28;20056;-80
2021/07/31 06:55:58;;;;;;;7.43;4.63;;;;;;;;;;5020396;28;20085;-79
2021/07/31 06:58:24;;;;;;;5.45;3.35;;;;;;;;;;5021884;28;20115;-80
2021/07/31 07:00:51;;;;;;;6.97;3.63;;;;;;;;;;5023252;28;20454;-77
2021/07/31 07:03:17;;;;;;;7.53;3.83;;;;;;;;;;5020912;28;20495;-79
2021/07/31 07:05:44;;;;;;;7.88;4.07;;;;;;;;;;5022557;28;20069;-80
2021/07/31 07:08:10;;;;;;;6.78;3.70;;;;;;;;;;5021098;28;20057;-80
2021/07/31 07:10:37;;;;;;;8.07;4.25;;;;;;;;;;5023232;28;20068;-80
2021/07/31 07:13:03;;;;;;;6.75;4.78;;;;;;;;;;5022660;28;20069;-80
2021/07/31 07:15:29;;;;;;;6.07;4.13;;;;;;;;;;5026410;28;20069;-80
2021/07/31 07:17:57;;;;;;;7.30;4.32;;;;;;;;;;5024911;28;20072;-79
2021/07/31 07:20:26;;;;;;;5.38;4.00;;;;;;;;;;5027290;28;20717;-80
2021/07/31 07:22:53;;;;;;;7.32;4.00;;;;;;;;;;5024444;28;20126;-80
2021/07/31 07:25:19;;;;;;;6.90;4.55;;;;;;;;;;5023062;28;20140;-81
2021/07/31 07:27:46;;;;;;;6.00;4.30;;;;;;;;;;5022262;28;20472;-81
2021/07/31 07:30:13;;;;;;;9.25;4.70;;;;;;;;;;5022951;28;20064;-85
2021/07/31 07:32:39;;;;;;;6.05;4.68;;;;;;;;;;5020376;28;21220;-81
2021/07/31 07:35:06;;;;;;;6.75;4.28;;;;;;;;;;5022646;28;20065;-83
2021/07/31 07:37:32;;;;;;;5.93;4.28;;;;;;;;;;5024435;28;20065;-83
2021/07/31 07:39:59;;;;;;;6.75;4.03;;;;;;;;;;5025654;28;20508;-82
2021/07/31 07:42:26;;;;;;;6.28;4.13;;;;;;;;;;5022509;28;20079;-83
2021/07/31 07:44:52;;;;;;;4.88;3.83;;;;;;;;;;5054949;28;20061;-83
2021/07/31 07:47:19;;;;;;;6.07;3.50;;;;;;;;;;5025027;28;20103;-83
2021/07/31 07:49:45;;;;;;;10.20;3.95;;;;;;;;;;5023620;28;20062;-83
2021/07/31 07:52:12;;;;;;;5.85;3.72;;;;;;;;;;5021887;28;20072;-83
2021/07/31 07:54:38;;;;;;;6.18;3.60;;;;;;;;;;5024653;28;20115;-83
2021/07/31 07:57:05;;;;;;;7.70;4.03;;;;;;;;;;5022247;28;20080;-84
2021/07/31 07:59:32;;;;;;;6.80;4.78;;;;;;;;;;5023356;28;20068;-83
2021/07/31 08:01:58;;;;;;;5.90;3.47;;;;;;;;;;5022991;28;20076;-81
2021/07/31 08:04:24;;;;;;;6.78;2.90;;;;;;;;;;5024320;28;20458;-81
2021/07/31 08:06:51;;;;;;;4.65;3.30;;;;;;;;;;5022366;28;20450;-78
2021/07/31 08:09:20;;;;;;;4.25;2.90;;;;;;;;;;5023455;28;20045;-80
2021/07/31 08:11:46;;;;;;;5.20;2.70;;;;;;;;;;5026424;28;20107;-82
2021/07/31 08:14:13;;;;;;;5.20;2.80;;;;;;;;;;5027370;28;20061;-79
2021/07/31 08:16:40;;;;;;;6.45;2.60;;;;;;;;;;5024977;28;20061;-79
2021/07/31 08:19:06;;;;;;;5.50;2.83;;;;;;;;;;5022182;28;20077;-84
2021/07/31 08:21:33;;;;;;;4.32;2.67;;;;;;;;;;5023788;28;20061;-76
2021/07/31 08:24:00;;;;;;;6.47;3.38;;;;;;;;;;5021306;28;20065;-78
2021/07/31 08:26:26;;;;;;;4.65;2.38;;;;;;;;;;5053605;28;20037;-79
2021/07/31 08:28:52;;;;;;;3.63;2.40;;;;;;;;;;5022668;28;20057;-79
2021/07/31 08:31:19;;;;;;;4.78;2.28;;;;;;;;;;5022394;28;20061;-76
2021/07/31 08:33:46;;;;;;;4.25;2.33;;;;;;;;;;5023090;28;20052;-78
2021/07/31 08:36:12;;;;;;;4.40;2.42;;;;;;;;;;5022613;28;20065;-79
2021/07/31 08:38:39;;;;;;;6.07;2.55;;;;;;;;;;5021577;28;20142;-78
2021/07/31 08:41:05;;;;;;;4.57;2.30;;;;;;;;;;5022483;28;20496;-79
2021/07/31 08:43:32;;;;;;;5.32;2.00;;;;;;;;;;5021117;28;20067;-78
2021/07/31 08:45:59;;;;;;;6.78;2.13;;;;;;;;;;5023870;28;20080;-77
2021/07/31 08:48:30;;;;;;;3.47;2.00;;;;;;;;;;5023485;28;20064;-79
2021/07/31 08:50:58;;;;;;;6.30;1.95;;;;;;;;;;5022161;28;20825;-77
2021/07/31 08:53:25;;;;;;;4.03;1.70;;;;;;;;;;5022307;28;20057;-78
2021/07/31 08:55:52;;;;;;;5.03;2.15;;;;;;;;;;5022351;28;20103;-77
2021/07/31 08:58:18;;;;;;;3.83;1.80;;;;;;;;;;5023738;28;20064;-79
2021/07/31 09:00:45;;;;;;;3.50;1.80;;;;;;;;;;5024467;28;20121;-77
2021/07/31 09:03:15;;;;;;;3.67;2.10;;;;;;;;;;5021622;28;20790;-76
2021/07/31 09:05:42;;;;;;;3.45;2.17;;;;;;;;;;5023836;28;20057;-78
2021/07/31 09:08:09;;;;;;;2.90;1.70;;;;;;;;;;5023327;28;20123;-78
2021/07/31 09:10:36;;;;;;;6.13;2.30;;;;;;;;;;5024188;28;20111;-77
2021/07/31 09:13:06;;;;;;;4.78;1.90;;;;;;;;;;5022267;28;20069;-76
2021/07/31 09:15:33;;;;;;;5.18;1.88;;;;;;;;;;5022959;28;20045;-78
2021/07/31 09:18:18;;;;;;;3.95;1.67;;;;;;;;;;5022151;28;20131;-79
2021/07/31 09:20:45;;;;;;;3.00;1.55;;;;;;;;;;5020276;28;20065;-77
2021/07/31 09:23:11;;;;;;;2.83;1.85;;;;;;;;;;5022707;28;20061;-78
2021/07/31 09:25:37;;;;;;;7.28;2.42;;;;;;;;;;5024092;28;20671;-79
2021/07/31 09:28:21;;;;;;;4.57;2.10;;;;;;;;;;5021542;28;20045;-77
2021/07/31 09:30:50;;;;;;;7.82;2.00;;;;;;;;;;5021990;28;20065;-77
2021/07/31 09:33:20;;;;;;;6.28;1.95;;;;;;;;;;5022871;28;20110;-78
2021/07/31 09:35:47;;;;;;;3.80;1.63;;;;;;;;;;5020128;28;20123;-76
2021/07/31 09:38:15;;;;;;;4.03;1.48;;;;;;;;;;5018955;28;20068;-76
2021/07/31 09:40:43;;;;;;;3.80;1.52;;;;;;;;;;5016305;28;20042;-77
2021/07/31 09:43:16;;;;;;;2.95;1.42;;;;;;;;;;5019364;28;20484;-76
2021/07/31 09:45:43;;;;;;;4.68;1.80;;;;;;;;;;5022379;28;20061;-76
2021/07/31 09:48:10;;;;;;;4.70;1.73;;;;;;;;;;5019888;28;20123;-77
2021/07/31 09:50:37;;;;;;;4.45;1.95;;;;;;;;;;5017698;28;20072;-76
2021/07/31 09:53:13;;;;;;;4.68;1.85;;;;;;;;;;5018401;28;20052;-78
2021/07/31 09:55:44;;;;;;;3.72;1.95;;;;;;;;;;5052678;28;20033;-77
2021/07/31 09:58:13;;;;;;;3.65;1.70;;;;;;;;;;5020474;28;20126;-77
2021/07/31 10:00:41;;;;;;;4.65;2.00;;;;;;;;;;5022628;28;20415;-80
2021/07/31 10:03:09;;;;;;;5.85;2.00;;;;;;;;;;5021610;28;20159;-79
2021/07/31 10:05:37;;;;;;;4.28;2.35;;;;;;;;;;5022990;28;20057;-76
2021/07/31 10:08:05;;;;;;;5.75;1.95;;;;;;;;;;5021330;28;20065;-77
2021/07/31 10:10:31;;;;;;;5.03;2.15;;;;;;;;;;5021874;28;20037;-78
2021/07/31 10:12:58;;;;;;;5.63;1.90;;;;;;;;;;5051514;28;20571;-77
2021/07/31 10:15:25;;;;;;;3.55;1.80;;;;;;;;;;5021121;28;20072;-76
2021/07/31 10:17:52;;;;;;;2.72;1.83;;;;;;;;;;5019928;28;20073;-77
2021/07/31 10:20:28;;;;;;;4.15;2.05;;;;;;;;;;5020972;28;20084;-77
2021/07/31 10:22:55;;;;;;;3.50;1.77;;;;;;;;;;5049905;28;20048;-77
2021/07/31 10:25:23;;;;;;;2.42;1.58;;;;;;;;;;5020735;28;20057;-78
2021/07/31 10:27:53;;;;;;;3.55;2.28;;;;;;;;;;5020288;28;20068;-77
2021/07/31 10:30:34;;;;;;;2.92;2.05;;;;;;;;;;5019785;28;20117;-77
2021/07/31 10:33:03;;;;;;;4.45;2.15;;;;;;;;;;5018231;28;20119;-77
2021/07/31 10:35:30;;;;;;;4.20;1.95;;;;;;;;;;5025941;28;21184;-77
2021/07/31 10:37:58;;;;;;;2.72;1.70;;;;;;;;;;5017140;28;20091;-79
2021/07/31 10:40:36;;;;;;;3.25;1.60;;;;;;;;;;5034364;28;20088;-76
2021/07/31 10:43:04;;;;;;;4.97;1.63;;;;;;;;;;5019808;28;20092;-77
2021/07/31 10:45:31;;;;;;;3.78;1.60;;;;;;;;;;5021805;28;20065;-77
2021/07/31 10:47:58;;;;;;;3.97;1.75;;;;;;;;;;5035379;28;20064;-77
2021/07/31 10:50:29;;;;;;;3.22;1.60;;;;;;;;;;5021466;28;20057;-76
2021/07/31 10:53:02;;;;;;;5.77;1.63;;;;;;;;;;5020343;28;20064;-74
2021/07/31 10:55:38;;;;;;;3.10;1.73;;;;;;;;;;5019407;28;20111;-76
2021/07/31 10:58:11;;;;;;;3.00;1.45;;;;;;;;;;5020203;28;20065;-80
2021/07/31 11:00:38;;;;;;;3.38;1.70;;;;;;;;;;5021490;28;20065;-78
2021/07/31 11:03:26;;;;;;;4.45;1.48;;;;;;;;;;5019601;28;20064;-77
2021/07/31 11:06:00;;;;;;;2.72;1.50;;;;;;;;;;5017267;28;20064;-77
2021/07/31 11:08:30;;;;;;;3.90;1.83;;;;;;;;;;5020130;28;20056;-76
2021/07/31 11:11:01;;;;;;;4.60;1.88;;;;;;;;;;5018709;28;20065;-77
2021/07/31 11:13:34;;;;;;;2.70;1.60;;;;;;;;;;5020889;28;20069;-75
2021/07/31 11:16:03;;;;;;;7.13;2.05;;;;;;;;;;5018987;28;20608;-76
2021/07/31 11:18:36;;;;;;;3.97;1.70;;;;;;;;;;5019962;28;20091;-76
2021/07/31 11:21:13;;;;;;;4.63;2.00;;;;;;;;;;5018290;28;20111;-75
2021/07/31 11:23:40;;;;;;;3.50;2.22;;;;;;;;;;5021461;28;20516;-76
2021/07/31 11:26:07;;;;;;;5.82;1.95;;;;;;;;;;5019502;28;20072;-76
2021/07/31 11:28:36;;;;;;;3.65;1.80;;;;;;;;;;5021665;28;20127;-76
2021/07/31 11:31:14;;;;;;;3.65;2.10;;;;;;;;;;5019275;28;20453;-76
2021/07/31 11:33:41;;;;;;;3.92;2.20;;;;;;;;;;5020520;28;20056;-78
2021/07/31 11:36:12;;;;;;;4.88;2.20;;;;;;;;;;5024083;28;20130;-78
2021/07/31 11:38:40;;;;;;;6.32;2.50;;;;;;;;;;5023171;28;20060;-78
2021/07/31 11:41:08;;;;;;;6.50;2.80;;;;;;;;;;5023609;28;20065;-79
2021/07/31 11:43:51;;;;;;;4.55;2.30;;;;;;;;;;5022833;28;20521;-79
2021/07/31 11:46:31;;;;;;;4.53;2.55;;;;;;;;;;5021520;28;20057;-78
2021/07/31 11:48:58;;;;;;;5.28;2.60;;;;;;;;;;5051089;28;20078;-79
2021/07/31 11:51:25;;;;;;;5.78;2.20;;;;;;;;;;5021839;28;20064;-78
2021/07/31 11:53:53;;;;;;;3.70;2.50;;;;;;;;;;5019961;28;20068;-78
2021/07/31 11:56:25;;;;;;;4.53;2.25;;;;;;;;;;5021851;28;20523;-79
2021/07/31 11:58:53;;;;;;;3.95;2.30;;;;;;;;;;5053219;28;20053;-78
2021/07/31 12:01:20;;;;;;;7.35;3.10;;;;;;;;;;5024202;28;20076;-78
2021/07/31 12:03:48;;;;;;;4.70;1.92;;;;;;;;;;5024881;28;20093;-79
2021/07/31 12:06:34;;;;;;;3.50;2.00;;;;;;;;;;5023635;28;20478;-79
2021/07/31 12:09:04;;;;;;;4.00;2.08;;;;;;;;;;5024814;28;20563;-81
2021/07/31 12:11:40;;;;;;;3.75;1.90;;;;;;;;;;5055505;28;20127;-75
2021/07/31 12:14:26;;;;;;;4.90;1.95;;;;;;;;;;5022742;28;20069;-80
2021/07/31 12:16:52;;;;;;;5.55;2.25;;;;;;;;;;5022318;28;20069;-78
2021/07/31 12:19:19;;;;;;;3.80;1.90;;;;;;;;;;5024340;28;20150;-79
2021/07/31 12:21:45;;;;;;;3.38;2.30;;;;;;;;;;5022870;28;20128;-79
2021/07/31 12:24:18;;;;;;;3.95;2.05;;;;;;;;;;5022880;28;20068;-79
2021/07/31 12:26:53;;;;;;;6.70;3.05;;;;;;;;;;5023723;28;20064;-79
2021/07/31 12:29:33;;;;;;;6.25;2.17;;;;;;;;;;5056413;28;20130;-80
2021/07/31 12:32:18;;;;;;;6.22;2.53;;;;;;;;;;5038451;28;20509;-79
2021/07/31 12:34:44;;;;;;;5.35;2.42;;;;;;;;;;5022474;28;20068;-80
2021/07/31 12:37:11;;;;;;;4.55;2.10;;;;;;;;;;5024044;28;20073;-79
2021/07/31 12:39:37;;;;;;;8.07;2.83;;;;;;;;;;5023822;28;20053;-78
2021/07/31 12:42:08;;;;;;;3.13;2.30;;;;;;;;;;5023726;28;20054;-78
2021/07/31 12:44:36;;;;;;;5.25;2.33;;;;;;;;;;5025507;28;20060;-85
2021/07/31 12:47:03;;;;;;;5.00;2.30;;;;;;;;;;5024644;28;20065;-85
2021/07/31 12:49:29;;;;;;;5.65;2.22;;;;;;;;;;5022580;28;20061;-87
2021/07/31 12:51:56;;;;;;;3.90;2.20;;;;;;;;;;5021936;28;20064;-84
2021/07/31 12:54:22;;;;;;;5.18;2.45;;;;;;;;;;5023240;28;20057;-84
2021/07/31 12:56:49;;;;;;;4.15;2.05;;;;;;;;;;5023133;28;20069;-86
2021/07/31 12:59:15;;;;;;;4.50;2.00;;;;;;;;;;5022554;28;20056;-85
2021/07/31 13:01:41;;;;;;;4.22;2.00;;;;;;;;;;5023187;28;20060;-84
2021/07/31 13:04:08;;;;;;;4.18;2.08;;;;;;;;;;5021826;28;20061;-85
2021/07/31 13:06:35;;;;;;;2.80;2.10;;;;;;;;;;5023500;28;20081;-84
2021/07/31 13:09:01;;;;;;;5.22;2.20;;;;;;;;;;5022515;28;20045;-80
2021/07/31 13:11:28;;;;;;;3.97;1.95;;;;;;;;;;5022954;28;20048;-76
2021/07/31 13:13:54;;;;;;;3.40;1.70;;;;;;;;;;5023583;28;20050;-74
2021/07/31 13:16:21;;;;;;;5.13;1.88;;;;;;;;;;5021240;28;20076;-74
2021/07/31 13:18:47;;;;;;;4.47;2.00;;;;;;;;;;5020921;28;20065;-74
2021/07/31 13:21:14;;;;;;;8.70;2.25;;;;;;;;;;5021806;28;20069;-73
2021/07/31 13:23:40;;;;;;;3.63;1.90;;;;;;;;;;5022525;28;20057;-73
2021/07/31 13:26:06;;;;;;;5.45;1.90;;;;;;;;;;5019752;28;21245;-73
2021/07/31 13:28:34;;;;;;;5.47;2.10;;;;;;;;;;5022720;28;20119;-74
2021/07/31 13:31:00;;;;;;;3.10;1.60;;;;;;;;;;5022418;28;20076;-73
2021/07/31 13:33:27;;;;;;;7.75;2.22;;;;;;;;;;5023826;28;20559;-73
2021/07/31 13:35:53;;;;;;;3.90;1.63;;;;;;;;;;5020593;28;20065;-73
2021/07/31 13:38:20;;;;;;;3.67;1.55;;;;;;;;;;5023632;28;20068;-73
2021/07/31 13:40:47;;;;;;;2.38;1.83;;;;;;;;;;5021664;28;20965;-73
2021/07/31 13:43:15;;;;;;;2.92;2.00;;;;;;;;;;5021211;28;20405;-73
2021/07/31 13:45:42;;;;;;;2.83;2.03;;;;;;;;;;5021293;28;20527;-72
2021/07/31 13:48:08;;;;;;;3.40;2.20;;;;;;;;;;5020407;28;20069;-74
2021/07/31 13:50:35;;;;;;;5.13;2.15;;;;;;;;;;5022265;28;20095;-74
2021/07/31 13:53:01;;;;;;;3.55;2.00;;;;;;;;;;5022167;28;20156;-74
2021/07/31 13:55:28;;;;;;;4.57;2.00;;;;;;;;;;5021838;28;20068;-73
2021/07/31 13:57:55;;;;;;;6.03;2.00;;;;;;;;;;5021738;28;20213;-74
2021/07/31 14:00:21;;;;;;;4.43;2.05;;;;;;;;;;5022198;28;20061;-72
2021/07/31 14:02:48;;;;;;;4.47;2.03;;;;;;;;;;5020492;28;20766;-72
2021/07/31 14:05:17;;;;;;;4.75;1.92;;;;;;;;;;5020546;28;20057;-73
2021/07/31 14:07:44;;;;;;;3.20;1.85;;;;;;;;;;5025917;28;20466;-73
2021/07/31 14:10:11;;;;;;;20.63;4.45;;;;;;;;;;5018846;28;20143;-76
2021/07/31 14:12:38;;;;;;;10.32;3.05;;;;;;;;;;5017909;28;20123;-73
2021/07/31 14:15:04;;;;;;;17.40;3.20;;;;;;;;;;5018832;28;20073;-73
2021/07/31 14:17:31;;;;;;;6.47;2.53;;;;;;;;;;5018314;28;20095;-73
2021/07/31 14:19:57;;;;;;;9.85;2.65;;;;;;;;;;5020730;28;20079;-74
2021/07/31 14:22:24;;;;;;;10.60;2.97;;;;;;;;;;5021749;28;20069;-72
2021/07/31 14:24:50;;;;;;;7.40;2.38;;;;;;;;;;5019863;28;20072;-71
2021/07/31 14:27:16;;;;;;;3.63;2.30;;;;;;;;;;5017546;28;21316;-74
2021/07/31 14:29:43;;;;;;;3.92;2.28;;;;;;;;;;5019453;28;20068;-72
2021/07/31 14:32:09;;;;;;;8.68;2.10;;;;;;;;;;5018617;28;20065;-74
2021/07/31 14:34:36;;;;;;;5.95;2.25;;;;;;;;;;5020849;28;20075;-74
2021/07/31 14:37:03;;;;;;;5.47;2.20;;;;;;;;;;5021552;28;20462;-72
2021/07/31 14:39:31;;;;;;;4.47;2.13;;;;;;;;;;5020236;28;20065;-72
2021/07/31 14:41:58;;;;;;;22.35;3.22;;;;;;;;;;5021020;28;20061;-72
2021/07/31 14:44:24;;;;;;;6.57;2.83;;;;;;;;;;5014623;28;20079;-72